Time;durP1;ratioP1;P1;durP2;ratioP2;P2;SDS_P1;SDS_P2;PMS_P1;PMS_P2;Temp;Humidity;BMP_temperature;BMP_pressure;BME280_temperature;BME280_humidity;BME280_pressure;Samples;Min_cycle;Max_cycle;Signal;HPM_P1;HPM_P2
2023/08/30 00:02:23;;;;;;;;;7.00;7.00;;;;;18.62;47.58;100599.81;5080113;27;45543;-60
2023/08/30 00:04:49;;;;;;;;;8.00;7.00;;;;;18.62;47.42;100590.97;5079729;27;46372;-60
2023/08/30 00:07:14;;;;;;;;;10.25;9.00;;;;;18.59;47.76;100584.00;5112571;27;45475;-60
2023/08/30 00:09:40;;;;;;;;;9.25;9.00;;;;;18.60;47.42;100575.09;5079078;28;45403;-60
2023/08/30 00:12:05;;;;;;;;;9.00;8.00;;;;;18.57;47.46;100575.22;5079620;27;45366;-60
2023/08/30 00:14:31;;;;;;;;;7.00;7.00;;;;;18.56;47.65;100576.16;5079848;27;46263;-60
2023/08/30 00:16:56;;;;;;;;;8.00;7.00;;;;;18.57;47.51;100574.38;5079947;27;45422;-60
2023/08/30 00:19:22;;;;;;;;;8.00;8.00;;;;;18.55;47.83;100573.59;5079773;27;45322;-60
2023/08/30 00:21:47;;;;;;;;;7.00;6.25;;;;;18.54;47.57;100569.19;5079602;27;45395;-60
2023/08/30 00:24:12;;;;;;;;;7.00;3.00;;;;;18.52;47.71;100563.97;5079145;28;49638;-60
2023/08/30 00:26:38;;;;;;;;;8.50;6.50;;;;;18.49;47.50;100562.31;5079406;27;50130;-60
2023/08/30 00:29:03;;;;;;;;;12.75;11.50;;;;;18.48;47.73;100552.59;5079352;27;49627;-60
2023/08/30 00:31:28;;;;;;;;;11.25;10.50;;;;;18.46;47.69;100556.28;5079675;27;45303;-60
2023/08/30 00:33:53;;;;;;;;;13.00;9.50;;;;;18.45;47.85;100554.56;5079283;27;52163;-60
2023/08/30 00:36:19;;;;;;;;;9.00;9.00;;;;;18.42;47.91;100547.59;5079383;27;45287;-60
2023/08/30 00:38:44;;;;;;;;;8.75;7.25;;;;;18.40;47.84;100546.81;5079655;27;45877;-60
2023/08/30 00:41:10;;;;;;;;;8.00;5.75;;;;;18.38;47.95;100553.13;5079507;27;45396;-60
2023/08/30 00:43:35;;;;;;;;;10.25;8.25;;;;;18.34;48.17;100555.09;5079480;27;46090;-60
2023/08/30 00:46:00;;;;;;;;;10.50;7.50;;;;;18.32;48.20;100551.66;5079553;27;45338;-60
2023/08/30 00:48:27;;;;;;;;;11.50;8.00;;;;;18.29;47.99;100546.50;5077969;28;45461;-60
2023/08/30 00:50:52;;;;;;;;;9.00;7.75;;;;;18.26;48.02;100550.16;5079331;28;45523;-60
2023/08/30 00:53:18;;;;;;;;;10.00;9.00;;;;;18.26;48.02;100536.00;5079136;27;46899;-60
2023/08/30 00:55:43;;;;;;;;;8.25;8.00;;;;;18.23;48.44;100539.69;5079288;28;45251;-60
2023/08/30 00:58:10;;;;;;;;;10.50;9.00;;;;;18.19;48.09;100538.09;5079521;27;45163;-60
2023/08/30 01:00:36;;;;;;;;;7.75;7.50;;;;;18.17;48.21;100532.00;5079445;27;45344;-60
2023/08/30 01:03:02;;;;;;;;;10.00;10.00;;;;;18.15;48.47;100534.75;5079139;27;45256;-60
2023/08/30 01:05:28;;;;;;;;;8.75;7.75;;;;;18.14;48.36;100529.50;5077622;28;45390;-60
2023/08/30 01:07:53;;;;;;;;;8.50;8.50;;;;;18.12;48.44;100520.72;5079087;27;45707;-60
2023/08/30 01:10:26;;;;;;;;;11.25;10.00;;;;;18.09;48.73;100520.91;5079138;27;45322;-60
2023/08/30 01:13:00;;;;;;;;;11.75;8.75;;;;;18.09;48.49;100523.56;5079331;27;45368;-60
2023/08/30 01:15:26;;;;;;;;;10.75;7.75;;;;;18.05;48.51;100513.97;5079084;27;45446;-60
2023/08/30 01:17:54;;;;;;;;;9.25;9.25;;;;;18.03;48.54;100517.56;5078890;28;45289;-60
2023/08/30 01:20:23;;;;;;;;;7.00;7.00;;;;;18.01;48.67;100514.16;5078781;27;46089;-60
2023/08/30 01:23:10;;;;;;;;;8.25;8.25;;;;;17.94;48.40;100501.22;5081483;27;45474;-60
2023/08/30 01:25:49;;;;;;;;;10.25;8.50;;;;;17.95;48.57;100502.94;5080544;28;45309;-60
2023/08/30 01:28:20;;;;;;;;;8.00;7.00;;;;;17.92;48.87;100505.72;5082576;27;45410;-60
2023/08/30 01:30:47;;;;;;;;;9.75;8.50;;;;;17.92;48.79;100508.38;5082273;27;45484;-60
2023/08/30 01:33:15;;;;;;;;;10.25;9.25;;;;;17.89;48.74;100505.88;5082398;27;45424;-60
2023/08/30 01:35:41;;;;;;;;;7.00;5.75;;;;;17.85;48.89;100508.66;5114633;27;45382;-60
2023/08/30 01:38:07;;;;;;;;;10.50;10.25;;;;;17.80;48.93;100496.56;5082411;28;45291;-60
2023/08/30 01:40:39;;;;;;;;;8.50;7.00;;;;;17.83;48.83;100507.03;5082332;27;45212;-60
2023/08/30 01:43:07;;;;;;;;;7.25;7.25;;;;;17.81;49.09;100499.13;5082161;27;45284;-60
2023/08/30 01:45:35;;;;;;;;;11.50;9.75;;;;;17.82;49.23;100500.88;5080627;28;45379;-59
2023/08/30 01:48:02;;;;;;;;;8.00;7.25;;;;;17.80;49.17;100499.22;5082204;27;45417;-60
2023/08/30 01:50:28;;;;;;;;;8.00;7.75;;;;;17.80;49.14;100492.09;5081667;27;45346;-60
2023/08/30 01:52:54;;;;;;;;;7.25;6.75;;;;;17.80;49.33;100488.59;5081980;27;45341;-59
2023/08/30 01:55:22;;;;;;;;;8.75;8.75;;;;;17.78;49.36;100485.13;5081864;27;45350;-59
2023/08/30 01:57:48;;;;;;;;;10.25;7.00;;;;;17.79;49.39;100485.03;5080726;28;45238;-59
2023/08/30 02:00:14;;;;;;;;;8.25;8.00;;;;;17.77;49.33;100481.59;5081864;27;45252;-59
2023/08/30 02:02:39;;;;;;;;;8.50;6.75;;;;;17.77;49.37;100481.59;5081757;28;45321;-59
2023/08/30 02:05:05;;;;;;;;;6.75;6.75;;;;;17.77;49.49;100481.59;5114559;27;45283;-59
2023/08/30 02:07:39;;;;;;;;;8.00;7.75;;;;;17.74;49.57;100476.44;5082356;27;45435;-60
2023/08/30 02:10:27;;;;;;;;;7.50;7.00;;;;;17.75;49.66;100478.16;5081847;28;45660;-59
2023/08/30 02:12:55;;;;;;;;;8.50;8.00;;;;;17.76;49.67;100479.91;5081558;28;45285;-59
2023/08/30 02:15:22;;;;;;;;;9.00;7.75;;;;;17.76;49.57;100479.00;5081645;27;45327;-59
2023/08/30 02:17:49;;;;;;;;;6.00;5.25;;;;;17.76;49.48;100477.25;5081770;27;45264;-59
2023/08/30 02:20:16;;;;;;;;;8.00;6.75;;;;;17.73;49.74;100469.41;5114472;27;45496;-59
2023/08/30 02:22:41;;;;;;;;;9.25;8.25;;;;;17.73;49.61;100472.06;5081380;27;46208;-59
2023/08/30 02:25:07;;;;;;;;;11.25;8.75;;;;;17.74;49.93;100472.94;5080962;27;53642;-60
2023/08/30 02:27:34;;;;;;;;;9.25;9.25;;;;;17.76;50.06;100477.25;5081448;27;45486;-60
2023/08/30 02:30:00;;;;;;;;;7.00;7.00;;;;;17.73;49.77;100474.72;5081749;27;45579;-59
2023/08/30 02:32:25;;;;;;;;;5.50;5.50;;;;;17.74;49.69;100478.25;5113318;27;47619;-59
2023/08/30 02:34:52;;;;;;;;;8.00;5.25;;;;;17.73;49.94;100479.19;5113712;27;45688;-59
2023/08/30 02:37:18;;;;;;;;;8.50;8.00;;;;;17.71;49.99;100477.44;5079911;28;45217;-60
2023/08/30 02:39:44;;;;;;;;;7.25;7.25;;;;;17.70;49.96;100481.03;5081502;27;45275;-59
2023/08/30 02:42:09;;;;;;;;;8.25;7.25;;;;;17.71;50.04;100476.59;5081034;28;45250;-60
2023/08/30 02:44:34;;;;;;;;;8.00;7.25;;;;;17.70;50.08;100474.88;5081467;27;45218;-59
2023/08/30 02:46:59;;;;;;;;;10.00;7.75;;;;;17.68;50.20;100476.72;5081178;28;45212;-59
2023/08/30 02:49:25;;;;;;;;;6.25;6.25;;;;;17.66;50.31;100462.66;5081176;27;48418;-60
2023/08/30 02:51:50;;;;;;;;;7.00;6.00;;;;;17.63;50.26;100471.63;5080813;27;46518;-59
2023/08/30 02:54:15;;;;;;;;;9.25;7.75;;;;;17.62;50.35;100480.56;5081089;27;45333;-60
2023/08/30 02:56:43;;;;;;;;;7.25;7.25;;;;;17.61;50.40;100472.63;5081004;27;45281;-59
2023/08/30 02:59:09;;;;;;;;;9.25;7.00;;;;;17.59;50.38;100456.78;5081179;27;46207;-59
2023/08/30 03:01:34;;;;;;;;;7.00;6.25;;;;;17.60;50.41;100462.97;5080771;27;46580;-59
2023/08/30 03:04:00;;;;;;;;;8.25;6.00;;;;;17.59;50.35;100469.22;5080901;27;45238;-60
2023/08/30 03:06:25;;;;;;;;;7.50;6.25;;;;;17.58;50.38;100459.53;5080750;27;45368;-59
2023/08/30 03:08:50;;;;;;;;;7.25;7.00;;;;;17.56;50.12;100470.22;5081038;28;45192;-59
2023/08/30 03:11:16;;;;;;;;;10.75;8.00;;;;;17.54;50.47;100467.63;5080488;27;46053;-59
2023/08/30 03:13:41;;;;;;;;;8.00;6.00;;;;;17.55;50.47;100469.34;5080937;27;45267;-59
2023/08/30 03:16:13;;;;;;;;;7.00;7.00;;;;;17.54;50.55;100477.41;5080749;28;45315;-59
2023/08/30 03:18:39;;;;;;;;;11.25;7.50;;;;;17.51;50.54;100474.91;5080742;27;45478;-59
2023/08/30 03:21:04;;;;;;;;;7.00;7.00;;;;;17.51;50.57;100478.41;5080284;27;45356;-59
2023/08/30 03:23:31;;;;;;;;;8.75;6.50;;;;;17.49;50.76;100468.78;5080671;27;45332;-59
2023/08/30 03:25:57;;;;;;;;;8.75;8.25;;;;;17.49;50.70;100474.09;5080960;27;45262;-59
2023/08/30 03:28:22;;;;;;;;;5.50;5.50;;;;;17.48;50.94;100465.28;5080595;27;45299;-60
2023/08/30 03:30:47;;;;;;;;;6.25;6.25;;;;;17.46;51.00;100464.47;5080384;27;45299;-59
2023/08/30 03:33:13;;;;;;;;;7.75;6.50;;;;;17.46;50.67;100467.13;5080542;27;45346;-60
2023/08/30 03:35:38;;;;;;;;;8.00;6.00;;;;;17.46;50.85;100467.13;5080290;27;45177;-60
2023/08/30 03:38:03;;;;;;;;;9.50;7.25;;;;;17.44;50.78;100468.16;5080457;27;45511;-60
2023/08/30 03:40:30;;;;;;;;;5.50;5.50;;;;;17.43;50.91;100467.25;5080241;27;46141;-59
2023/08/30 03:42:55;;;;;;;;;8.50;7.00;;;;;17.41;51.06;100463.84;5080398;27;45385;-60
2023/08/30 03:45:21;;;;;;;;;6.50;6.50;;;;;17.40;51.32;100469.22;5080024;27;45258;-59
2023/08/30 03:47:46;;;;;;;;;6.25;6.00;;;;;17.40;50.68;100463.91;5080199;27;45260;-59
2023/08/30 03:50:11;;;;;;;;;6.50;6.50;;;;;17.36;51.07;100455.22;5080007;27;45460;-59
2023/08/30 03:52:37;;;;;;;;;8.00;6.00;;;;;17.35;51.13;100462.31;5080356;27;45279;-59
2023/08/30 03:55:02;;;;;;;;;7.00;6.00;;;;;17.36;51.32;100452.56;5080035;27;45387;-59
2023/08/30 03:57:28;;;;;;;;;7.25;6.25;;;;;17.33;51.17;100458.91;5080236;27;45322;-59
2023/08/30 03:59:53;;;;;;;;;5.50;5.00;;;;;17.33;51.29;100452.69;5079902;27;45445;-59
2023/08/30 04:02:19;;;;;;;;;8.50;5.00;;;;;17.25;51.38;100438.94;5080245;27;45343;-59
2023/08/30 04:04:47;;;;;;;;;5.25;4.25;;;;;17.32;51.21;100457.16;5080154;28;45318;-60
2023/08/30 04:07:13;;;;;;;;;7.50;6.00;;;;;17.32;51.40;100456.28;5079702;27;45260;-59
2023/08/30 04:09:38;;;;;;;;;5.25;4.25;;;;;17.34;51.32;100449.13;5079703;28;45227;-60
2023/08/30 04:12:04;;;;;;;;;5.50;5.50;;;;;17.33;51.30;100445.63;5080030;27;45229;-60
2023/08/30 04:14:30;;;;;;;;;7.00;5.75;;;;;17.35;51.41;100450.84;5080013;27;45181;-59
2023/08/30 04:16:55;;;;;;;;;4.25;4.25;;;;;17.36;51.25;100455.22;5078611;28;45295;-59
2023/08/30 04:19:20;;;;;;;;;6.25;4.50;;;;;17.37;51.22;100456.94;5079585;27;45430;-60
2023/08/30 04:21:46;;;;;;;;;6.75;5.00;;;;;17.37;51.08;100448.97;5079377;27;53426;-60
2023/08/30 04:24:11;;;;;;;;;4.50;4.50;;;;;17.34;51.50;100443.81;5079670;27;45286;-60
2023/08/30 04:26:37;;;;;;;;;8.00;5.00;;;;;17.38;51.46;100453.34;5079880;27;45335;-60
2023/08/30 04:29:03;;;;;;;;;5.00;5.00;;;;;17.36;51.52;100452.56;5079656;27;45296;-59
2023/08/30 04:31:28;;;;;;;;;5.00;4.00;;;;;17.35;51.60;100445.53;5112079;27;45341;-60
2023/08/30 04:33:55;;;;;;;;;6.25;6.25;;;;;17.37;51.72;100451.63;5079753;27;45335;-59
2023/08/30 04:36:20;;;;;;;;;4.25;4.25;;;;;17.37;51.54;100451.63;5079448;27;45253;-60
2023/08/30 04:38:46;;;;;;;;;6.00;4.00;;;;;17.37;51.55;100451.63;5079419;27;45307;-59
2023/08/30 04:41:11;;;;;;;;;5.00;5.00;;;;;17.37;51.75;100438.34;5079505;27;45146;-59
2023/08/30 04:43:37;;;;;;;;;6.00;5.25;;;;;17.35;51.87;100432.25;5079707;27;45536;-60
2023/08/30 04:46:02;;;;;;;;;7.25;5.75;;;;;17.36;51.89;100437.50;5079622;27;45232;-59
2023/08/30 04:48:28;;;;;;;;;6.00;6.00;;;;;17.35;51.81;100433.09;5079229;28;45323;-59
2023/08/30 04:51:02;;;;;;;;;6.75;6.50;;;;;17.36;52.05;100424.22;5079193;27;45231;-59
2023/08/30 04:53:28;;;;;;;;;7.00;5.50;;;;;17.34;51.99;100433.19;5079424;27;45435;-60
2023/08/30 04:55:53;;;;;;;;;7.00;5.50;;;;;17.34;52.11;100422.56;5079421;27;45190;-59
2023/08/30 04:58:18;;;;;;;;;4.50;4.50;;;;;17.34;52.29;100422.56;5082858;27;45331;-60
2023/08/30 05:00:44;;;;;;;;;6.75;5.75;;;;;17.32;52.25;100413.78;5083117;27;45439;-60
2023/08/30 05:03:09;;;;;;;;;7.00;4.50;;;;;17.28;52.54;100410.47;5082937;27;45497;-59
2023/08/30 05:05:34;;;;;;;;;7.25;5.00;;;;;17.28;52.39;100405.13;5082759;27;45268;-60
2023/08/30 05:08:00;;;;;;;;;5.50;5.50;;;;;17.29;52.46;100413.97;5082404;27;45237;-60
2023/08/30 05:10:25;;;;;;;;;6.25;4.50;;;;;17.21;52.58;100401.91;5082832;27;45342;-59
2023/08/30 05:12:51;;;;;;;;;5.25;5.25;;;;;17.26;52.61;100398.16;5082769;27;45345;-60
2023/08/30 05:15:17;;;;;;;;;7.00;6.00;;;;;17.26;52.69;100408.78;5083030;27;45376;-59
2023/08/30 05:17:43;;;;;;;;;7.00;6.00;;;;;17.26;52.72;100403.47;5082465;27;46338;-59
2023/08/30 05:20:08;;;;;;;;;7.50;6.25;;;;;17.26;52.67;100400.81;5082615;27;45313;-59
2023/08/30 05:22:34;;;;;;;;;7.00;5.25;;;;;17.24;52.98;100400.03;5082655;27;45560;-59
2023/08/30 05:25:00;;;;;;;;;7.00;6.25;;;;;17.23;53.83;100393.84;5082511;27;45453;-59
2023/08/30 05:27:25;;;;;;;;;7.50;5.00;;;;;17.21;53.32;100409.88;5082198;28;45345;-60
2023/08/30 05:29:51;;;;;;;;;8.00;5.75;;;;;17.18;53.42;100396.75;5082549;27;45230;-60
2023/08/30 05:32:17;;;;;;;;;2.50;2.25;;;;;17.19;53.38;100410.88;5082588;27;45257;-59
2023/08/30 05:34:42;;;;;;;;;5.25;5.25;;;;;17.16;53.08;100403.91;5082617;27;45256;-59
2023/08/30 05:37:07;;;;;;;;;5.75;4.50;;;;;17.17;53.30;100410.09;5081823;28;46492;-60
2023/08/30 05:39:34;;;;;;;;;5.75;5.75;;;;;17.17;53.15;100402.97;5082571;27;45380;-59
2023/08/30 05:41:59;;;;;;;;;6.75;5.75;;;;;17.17;53.48;100405.63;5082368;27;45267;-59
2023/08/30 05:44:25;;;;;;;;;8.00;7.00;;;;;17.18;53.43;100410.03;5082532;27;45706;-60
2023/08/30 05:46:50;;;;;;;;;8.00;6.00;;;;;17.16;53.47;100406.56;5082072;27;45312;-59
2023/08/30 05:49:15;;;;;;;;;5.75;5.75;;;;;17.20;53.53;100407.28;5082262;27;45389;-59
2023/08/30 05:51:41;;;;;;;;;11.25;7.00;;;;;17.20;53.74;100401.97;5082141;27;45346;-59
2023/08/30 05:54:06;;;;;;;;;9.75;7.00;;;;;17.19;53.74;100411.75;5082201;27;45453;-59
2023/08/30 05:56:31;;;;;;;;;9.00;7.25;;;;;17.19;53.85;100400.25;5081900;27;47416;-60
2023/08/30 05:58:57;;;;;;;;;6.25;4.75;;;;;17.17;53.71;100410.94;5081990;27;45447;-60
2023/08/30 06:01:22;;;;;;;;;9.50;7.25;;;;;17.17;53.89;100416.25;5080804;28;45546;-60
2023/08/30 06:03:47;;;;;;;;;8.00;8.00;;;;;17.20;54.05;100420.56;5082002;27;45475;-60
2023/08/30 06:06:13;;;;;;;;;7.50;7.00;;;;;17.20;53.82;100412.59;5081511;27;47112;-59
2023/08/30 06:08:39;;;;;;;;;7.00;6.25;;;;;17.19;53.84;100419.72;5081692;28;45428;-58
2023/08/30 06:11:04;;;;;;;;;10.50;10.50;;;;;17.22;53.86;100424.88;5081680;27;46300;-58
2023/08/30 06:13:29;;;;;;;;;14.75;12.00;;;;;17.21;53.86;100414.31;5081815;27;45482;-59
2023/08/30 06:15:55;;;;;;;;;12.00;9.00;;;;;17.25;53.88;100421.19;5081516;27;46072;-59
2023/08/30 06:18:20;;;;;;;;;8.25;8.25;;;;;17.24;53.77;100421.28;5081801;27;45366;-59
2023/08/30 06:20:46;;;;;;;;;11.25;10.50;;;;;17.24;54.02;100421.28;5081399;27;45536;-59
2023/08/30 06:23:11;;;;;;;;;10.00;9.50;;;;;17.26;53.98;100422.94;5081560;27;45506;-59
2023/08/30 06:25:36;;;;;;;;;11.50;10.25;;;;;17.27;54.15;100421.13;5079737;28;46243;-59
2023/08/30 06:28:03;;;;;;;;;9.50;8.00;;;;;17.29;54.17;100428.09;5081384;27;50343;-59
2023/08/30 06:30:29;;;;;;;;;10.75;10.50;;;;;17.30;54.08;100436.94;5097291;27;45263;-59
2023/08/30 06:32:55;;;;;;;;;19.75;9.75;;;;;17.29;53.91;100424.56;5081419;27;45449;-59
2023/08/30 06:35:21;;;;;;;;;13.50;8.00;;;;;17.28;54.10;100422.84;5080854;28;45418;-59
2023/08/30 06:37:46;;;;;;;;;11.25;9.00;;;;;17.33;54.25;100435.00;5081536;27;45270;-59
2023/08/30 06:40:11;;;;;;;;;6.75;6.50;;;;;17.36;54.32;100434.00;5081046;28;46707;-59
2023/08/30 06:42:38;;;;;;;;;6.50;6.25;;;;;17.35;54.42;100441.06;5081358;27;45310;-59
2023/08/30 06:45:04;;;;;;;;;7.50;6.25;;;;;17.34;54.40;100441.16;5081121;27;45689;-59
2023/08/30 06:47:29;;;;;;;;;6.00;5.00;;;;;17.34;54.51;100442.00;5080984;27;45580;-59
2023/08/30 06:49:54;;;;;;;;;10.00;6.00;;;;;17.36;54.75;100442.81;5080948;27;45472;-59
2023/08/30 06:52:20;;;;;;;;;5.00;5.00;;;;;17.36;54.78;100428.66;5081291;27;45572;-59
2023/08/30 06:54:45;;;;;;;;;11.00;7.75;;;;;17.39;54.80;100433.81;5080893;27;45929;-59
2023/08/30 06:57:10;;;;;;;;;8.25;7.00;;;;;17.41;54.98;100433.75;5081078;27;45248;-59
2023/08/30 06:59:36;;;;;;;;;24.00;19.50;;;;;17.41;54.76;100442.59;5081047;27;45303;-59
2023/08/30 07:02:02;;;;;;;;;10.75;9.00;;;;;17.39;54.78;100433.81;5081103;27;45169;-59
2023/08/30 07:04:28;;;;;;;;;7.50;5.75;;;;;17.43;54.62;100431.88;5080806;27;45240;-59
2023/08/30 07:06:53;;;;;;;;;6.75;6.25;;;;;17.45;55.07;100438.84;5080384;27;45182;-59
2023/08/30 07:09:18;;;;;;;;;8.25;7.25;;;;;17.49;55.13;100443.06;5080916;28;45260;-59
2023/08/30 07:11:47;;;;;;;;;10.00;7.00;;;;;17.51;55.21;100435.91;5080345;27;45213;-59
2023/08/30 07:14:14;;;;;;;;;7.50;7.00;;;;;17.50;55.48;100436.81;5080721;27;46223;-59
2023/08/30 07:16:39;;;;;;;;;5.50;5.50;;;;;17.55;55.45;100442.78;5080841;27;45322;-59
2023/08/30 07:19:05;;;;;;;;;7.50;7.50;;;;;17.55;55.52;100428.66;5080049;27;45418;-59
2023/08/30 07:21:30;;;;;;;;;6.00;6.00;;;;;17.59;55.35;100438.19;5080642;28;45318;-59
2023/08/30 07:23:56;;;;;;;;;4.00;4.00;;;;;17.60;55.77;100434.59;5080338;27;45845;-60
2023/08/30 07:26:21;;;;;;;;;5.00;4.00;;;;;17.63;55.62;100430.94;5080712;27;45379;-59
2023/08/30 07:28:46;;;;;;;;;9.25;8.75;;;;;17.65;55.76;100437.03;5080511;27;45632;-59
2023/08/30 07:31:18;;;;;;;;;5.00;4.25;;;;;17.58;55.72;100423.16;5080757;27;45170;-59
2023/08/30 07:33:43;;;;;;;;;5.50;5.50;;;;;17.68;55.77;100423.59;5080379;27;46925;-59
2023/08/30 07:36:08;;;;;;;;;5.25;4.00;;;;;17.73;55.73;100437.50;5080159;27;45469;-60
2023/08/30 07:38:34;;;;;;;;;6.75;5.25;;;;;17.75;55.74;100427.69;5080397;27;45264;-59
2023/08/30 07:41:00;;;;;;;;;5.25;5.00;;;;;17.77;55.84;100433.75;5080431;27;45335;-59
2023/08/30 07:43:25;;;;;;;;;4.50;3.50;;;;;17.79;55.71;100429.25;5080188;27;45259;-59
2023/08/30 07:45:50;;;;;;;;;7.75;3.00;;;;;17.85;55.72;100431.59;5080195;28;51493;-59
2023/08/30 07:48:16;;;;;;;;;5.50;4.25;;;;;17.91;55.87;100437.53;5080130;28;46591;-60
2023/08/30 07:50:41;;;;;;;;;3.25;3.00;;;;;17.94;55.70;100435.63;5080093;28;46225;-60
2023/08/30 07:53:06;;;;;;;;;6.00;3.00;;;;;17.97;55.84;100432.81;5079898;28;52215;-60
2023/08/30 07:55:32;;;;;;;;;5.00;5.00;;;;;18.01;55.90;100429.06;5079442;27;45174;-60
2023/08/30 07:57:57;;;;;;;;;5.75;4.00;;;;;18.08;55.78;100434.09;5080360;27;45346;-60
2023/08/30 08:00:22;;;;;;;;;5.50;5.50;;;;;18.12;55.79;100423.19;5080078;27;48182;-59
2023/08/30 08:02:48;;;;;;;;;3.00;3.00;;;;;18.15;55.24;100427.50;5080080;28;48064;-59
2023/08/30 08:05:13;;;;;;;;;4.75;2.75;;;;;18.18;55.48;100430.88;5079518;28;48201;-59
2023/08/30 08:07:40;;;;;;;;;4.25;3.75;;;;;18.26;55.70;100432.28;5079910;27;45390;-60
2023/08/30 08:10:06;;;;;;;;;3.00;3.00;;;;;18.29;55.44;100432.13;5079956;27;45231;-59
2023/08/30 08:12:33;;;;;;;;;3.00;3.00;;;;;18.34;55.75;100432.75;5079782;27;46282;-59
2023/08/30 08:14:58;;;;;;;;;4.00;2.75;;;;;18.38;55.50;100442.28;5079915;27;45312;-59
2023/08/30 08:17:23;;;;;;;;;2.75;2.75;;;;;18.39;55.45;100427.19;5079758;27;45417;-59
2023/08/30 08:19:48;;;;;;;;;2.50;2.50;;;;;18.47;55.69;100440.94;5079783;27;45563;-59
2023/08/30 08:22:14;;;;;;;;;4.50;4.50;;;;;18.51;55.51;100435.41;5079763;27;45898;-60
2023/08/30 08:24:39;;;;;;;;;2.25;2.25;;;;;18.55;55.24;100436.06;5079862;27;45256;-59
2023/08/30 08:27:05;;;;;;;;;2.75;2.75;;;;;18.59;54.94;100435.00;5079459;27;47202;-60
2023/08/30 08:29:31;;;;;;;;;3.00;3.00;;;;;18.64;55.46;100434.72;5079824;27;45227;-59
2023/08/30 08:31:57;;;;;;;;;5.00;3.00;;;;;18.69;55.33;100432.69;5079745;28;47222;-60
2023/08/30 08:34:22;;;;;;;;;3.25;3.00;;;;;18.72;55.14;100429.88;5083568;27;45226;-59
2023/08/30 08:36:48;;;;;;;;;4.75;3.00;;;;;18.76;55.37;100433.25;5083148;28;45278;-59
2023/08/30 08:39:14;;;;;;;;;2.25;2.25;;;;;18.78;54.84;100440.19;5083498;27;45274;-60
2023/08/30 08:41:44;;;;;;;;;5.50;1.00;;;;;18.81;54.27;100433.84;5098821;27;47577;-59
2023/08/30 08:44:11;;;;;;;;;6.50;2.75;;;;;18.84;54.77;100445.19;5083283;27;45539;-59
2023/08/30 08:46:38;;;;;;;;;2.75;2.75;;;;;18.89;54.58;100436.09;5083012;28;45252;-59
2023/08/30 08:49:10;;;;;;;;;3.00;2.00;;;;;18.91;54.23;100436.91;5083114;27;45223;-60
2023/08/30 08:51:36;;;;;;;;;4.75;2.00;;;;;18.92;53.87;100436.81;5082592;27;46147;-59
2023/08/30 08:54:03;;;;;;;;;3.50;3.00;;;;;18.93;53.99;100435.00;5082997;27;45270;-60
2023/08/30 08:56:30;;;;;;;;;4.00;4.00;;;;;18.95;54.13;100443.78;5082926;27;45168;-60
2023/08/30 08:58:56;;;;;;;;;1.67;1.00;;;;;18.97;53.55;100440.09;5082440;27;46832;-60
2023/08/30 09:01:22;;;;;;;;;2.25;2.25;;;;;19.02;53.57;100446.97;5082673;27;45394;-60
2023/08/30 09:03:47;;;;;;;;;4.00;4.00;;;;;19.02;53.33;100446.97;5082945;27;45271;-59
2023/08/30 09:06:15;;;;;;;;;3.50;2.00;;;;;19.04;53.16;100456.59;5083062;27;45322;-59
2023/08/30 09:08:40;;;;;;;;;2.00;2.00;;;;;19.04;53.41;100456.59;5082801;28;45481;-60
2023/08/30 09:11:05;;;;;;;;;2.00;2.00;;;;;19.04;53.17;100459.25;5082522;27;46049;-59
2023/08/30 09:13:31;;;;;;;;;3.00;1.00;;;;;19.05;52.83;100452.16;5082723;27;45272;-59
2023/08/30 09:15:57;;;;;;;;;2.50;2.00;;;;;19.06;52.57;100445.88;5082727;27;45208;-59
2023/08/30 09:18:27;;;;;;;;;2.00;1.50;;;;;19.08;52.64;100455.50;5082732;28;45413;-59
2023/08/30 09:20:53;;;;;;;;;3.00;2.00;;;;;19.10;52.36;100436.78;5082381;27;45421;-60
2023/08/30 09:23:25;;;;;;;;;2.50;2.50;;;;;19.15;52.82;100448.88;5082526;27;45335;-59
2023/08/30 09:25:56;;;;;;;;;3.25;1.50;;;;;19.19;52.23;100443.41;5081457;27;45197;-60
2023/08/30 09:28:22;;;;;;;;;2.00;1.00;;;;;19.24;52.09;100444.00;5081408;27;45282;-60
2023/08/30 09:30:51;;;;;;;;;3.00;3.00;;;;;19.30;52.05;100454.31;5079824;28;47070;-60
2023/08/30 09:33:37;;;;;;;;;1.25;1.25;;;;;19.37;52.16;100453.03;5080022;28;45353;-60
2023/08/30 09:36:09;;;;;;;;;3.00;3.00;;;;;19.42;51.64;100456.31;5080847;27;45443;-60
2023/08/30 09:38:36;;;;;;;;;1.00;1.00;;;;;19.51;51.79;100452.28;5081090;28;45418;-59
2023/08/30 09:41:05;;;;;;;;;1.75;1.00;;;;;19.56;51.64;100447.53;5080983;28;46536;-59
2023/08/30 09:43:34;;;;;;;;;2.50;2.00;;;;;19.60;50.82;100441.06;5096380;27;45338;-60
2023/08/30 09:46:03;;;;;;;;;4.25;2.00;;;;;19.69;51.03;100452.16;5097089;27;45243;-60
2023/08/30 09:48:29;;;;;;;;;2.00;0.25;;;;;19.67;50.59;100441.56;5080829;27;45359;-59
2023/08/30 09:50:58;;;;;;;;;3.25;2.00;;;;;19.78;50.90;100452.47;5080571;27;45980;-61
2023/08/30 09:53:29;;;;;;;;;2.75;2.75;;;;;19.85;50.33;100442.38;5080801;27;45178;-59
2023/08/30 09:55:55;;;;;;;;;1.50;1.50;;;;;19.91;50.07;100436.69;5081176;27;45403;-60
2023/08/30 09:58:22;;;;;;;;;3.50;2.00;;;;;19.99;49.81;100436.25;5080817;27;45290;-60
2023/08/30 10:00:48;;;;;;;;;4.25;2.00;;;;;20.06;49.99;100431.41;5080733;28;45711;-59
2023/08/30 10:03:16;;;;;;;;;4.25;3.50;;;;;20.14;49.91;100431.81;5113733;27;45286;-60
2023/08/30 10:05:43;;;;;;;;;2.50;1.50;;;;;20.26;49.86;100422.22;5080387;27;45349;-59
2023/08/30 10:08:09;;;;;;;;;3.00;3.00;;;;;20.37;49.25;100426.91;5096123;27;45368;-59
2023/08/30 10:10:35;;;;;;;;;5.00;3.00;;;;;20.52;49.11;100430.47;5080471;27;46238;-59
2023/08/30 10:13:01;;;;;;;;;2.75;2.75;;;;;20.62;48.72;100428.94;5079129;28;45501;-59
2023/08/30 10:15:28;;;;;;;;;2.00;2.00;;;;;20.76;48.46;100431.63;5080727;27;45358;-59
2023/08/30 10:17:54;;;;;;;;;3.75;3.00;;;;;20.92;48.56;100426.22;5080394;27;45223;-59
2023/08/30 10:20:19;;;;;;;;;2.75;2.25;;;;;21.08;48.14;100420.78;5080082;27;45293;-59
2023/08/30 10:22:48;;;;;;;;;2.25;2.25;;;;;21.24;48.14;100415.31;5080370;27;45207;-59
2023/08/30 10:25:19;;;;;;;;;2.00;2.00;;;;;21.46;47.09;100437.09;5073359;27;1142005;-59
2023/08/30 10:27:48;;;;;;;;;4.00;3.00;;;;;21.59;46.80;100422.03;5081426;27;45310;-59
2023/08/30 10:30:15;;;;;;;;;1.00;1.00;;;;;21.80;46.98;100422.44;5114413;27;47500;-59
2023/08/30 10:32:42;;;;;;;;;3.00;3.00;;;;;22.01;45.96;100432.63;5081421;27;45265;-59
2023/08/30 10:35:11;;;;;;;;;2.00;2.00;;;;;22.21;46.25;100428.59;5081363;27;45197;-59
2023/08/30 10:37:37;;;;;;;;;6.00;3.00;;;;;22.40;46.31;100423.75;5113901;27;45477;-59
2023/08/30 10:40:05;;;;;;;;;1.00;1.00;;;;;22.56;46.29;100422.69;5081197;27;46381;-59
2023/08/30 10:42:32;;;;;;;;;3.25;3.25;;;;;22.71;45.86;100424.28;5081365;27;45420;-59
2023/08/30 10:45:05;;;;;;;;;5.25;3.50;;;;;22.87;45.17;100417.84;5081202;27;45482;-59
2023/08/30 10:47:32;;;;;;;;;3.00;3.00;;;;;23.00;44.58;100416.00;5081092;27;45326;-59
2023/08/30 10:50:04;;;;;;;;;2.00;2.00;;;;;23.11;44.87;100407.19;5080857;27;46421;-60
2023/08/30 10:52:30;;;;;;;;;2.00;2.00;;;;;23.19;44.29;100425.44;5081244;27;45496;-59
2023/08/30 10:55:05;;;;;;;;;3.00;3.00;;;;;23.28;44.11;100422.09;5079712;27;45479;-59
2023/08/30 10:57:33;;;;;;;;;3.50;2.00;;;;;23.33;44.27;100414.56;5081157;27;45318;-59
2023/08/30 11:00:13;;;;;;;;;3.00;3.00;;;;;23.40;43.22;100416.81;5079333;28;46253;-59
2023/08/30 11:02:48;;;;;;;;;4.00;3.00;;;;;23.40;42.92;100420.31;5080932;28;45414;-59
2023/08/30 11:05:15;;;;;;;;;2.00;1.00;;;;;23.39;42.77;100420.44;5080880;27;45273;-60
2023/08/30 11:07:40;;;;;;;;;4.00;2.00;;;;;23.37;42.22;100424.09;5080449;27;45315;-60
2023/08/30 11:10:06;;;;;;;;;3.25;2.00;;;;;23.36;42.09;100427.72;5080934;27;45445;-60
2023/08/30 11:12:32;;;;;;;;;2.00;2.00;;;;;23.34;41.36;100416.25;5080813;27;45255;-60
2023/08/30 11:14:57;;;;;;;;;5.25;2.00;;;;;23.33;41.42;100422.63;5080987;27;45226;-58
2023/08/30 11:17:23;;;;;;;;;3.00;3.00;;;;;23.32;41.67;100420.91;5080684;27;45248;-58
2023/08/30 11:19:58;;;;;;;;;1.75;1.75;;;;;23.31;41.15;100424.53;5080790;27;45283;-58
2023/08/30 11:22:24;;;;;;;;;3.75;2.25;;;;;23.28;40.87;100423.91;5080707;27;45181;-58